Terminal Aerodrome Forecast
Issued by NWS Wakefield, VA

Home | Current Version | Previous Version | Text Only | Print | Product List | Glossary On
Versions: 1 2 3 4 5 6 7 8 9 10 11 12 13 14 15 16
000
FTUS41 KAKQ 030049 AAA
TAFECG
TAF AMD
KECG 030049Z 0301/0324 35011KT P6SM VCTS SCT030CB OVC080
      TEMPO 0301/0303 4SM SHRA BKN025 OVC080
     FM030300 VRB04KT 5SM BR SCT030 BKN050
     FM030800 07005KT 3SM -RA BKN025 OVC050
     FM031400 13006KT 5SM -SHRA BKN015 OVC030=

USA.gov is the U.S. government's official web portal to all federal, state and local government web resources and services.